Portland, Oregon
Traffic Map
Current Weather Conditions
Portland, Oregon
Few Clouds
Few Clouds
53°
Feels Like: 53°
Wind Chill: 53° Ceiling: Unl
Heat Index: 53° Visibility: 10mi
Dew Point: 43° Wind: 3mph
Humidity: 69% Direction: 330° (NNW)
Pressure: 29.95in Gusts: 0mph
Raw Report DataKPDX 250553Z 33003KT 10SM FEW060 12/06 A2995 RMK AO2 SLP143 T01170061 10178 20117 50002
Traffic Incident Summary
Active as of:
Severity:
Category:
InformationThere was an issue retrieving the traffic information for this location. Please try a different location or try again shortly.
Advertisements
Track Severe Weather on mobile